Time;durP1;ratioP1;P1;durP2;ratioP2;P2;SDS_P1;SDS_P2;PMS_P1;PMS_P2;Temp;Humidity;BMP_temperature;BMP_pressure;BME280_temperature;BME280_humidity;BME280_pressure;Samples;Min_cycle;Max_cycle;Signal;HPM_P1;HPM_P2
2021/09/18 00:14:08;;;;;;;4.20;2.85;;;21.70;55.70;;;;;;20878617;28;81648;-71
2021/09/18 00:24:10;;;;;;;;;;;21.70;55.00;;;;;;20875604;28;80741;-72
2021/09/18 00:34:12;;;;;;;4.68;2.90;;;21.60;54.20;;;;;;20896140;28;80597;-72
2021/09/18 00:44:17;;;;;;;;;;;21.50;53.80;;;;;;20874350;28;80003;-72
2021/09/18 00:54:19;;;;;;;5.43;2.53;;;21.40;53.40;;;;;;20895498;28;81810;-72
2021/09/18 01:04:22;;;;;;;5.13;3.10;;;21.30;53.50;;;;;;20872837;28;80222;-72
2021/09/18 01:14:24;;;;;;;3.45;2.33;;;21.20;53.10;;;;;;20872059;28;80006;-71
2021/09/18 01:24:29;;;;;;;5.05;2.80;;;21.10;53.20;;;;;;20889418;27;82246;-71
2021/09/18 01:34:33;;;;;;;6.28;3.05;;;21.00;53.30;;;;;;20871655;28;81908;-72
2021/09/18 01:44:36;;;;;;;3.50;2.65;;;20.90;54.40;;;;;;20889340;28;82151;-72
2021/09/18 01:54:38;;;;;;;5.70;3.33;;;20.80;57.80;;;;;;20869809;28;80869;-73
2021/09/18 02:04:42;;;;;;;4.40;2.80;;;20.70;60.50;;;;;;20869310;28;81036;-73
2021/09/18 02:14:46;;;;;;;5.93;2.85;;;20.50;61.20;;;;;;20886588;28;80608;-72
2021/09/18 02:24:49;;;;;;;5.18;2.80;;;20.30;60.90;;;;;;20885179;28;80701;-71
2021/09/18 02:34:51;;;;;;;4.47;3.00;;;20.20;59.40;;;;;;20884835;28;80042;-71
2021/09/18 02:44:54;;;;;;;6.65;2.90;;;20.20;59.50;;;;;;20867086;28;80874;-72
2021/09/18 02:54:57;;;;;;;4.18;2.72;;;20.10;59.90;;;;;;20884499;28;81922;-74
2021/09/18 03:04:59;;;;;;;5.32;2.55;;;19.90;61.00;;;;;;20884233;28;81967;-75
2021/09/18 03:15:05;;;;;;;7.22;3.65;;;19.90;61.60;;;;;;20866111;28;82184;-73
2021/09/18 03:25:22;;;;;;;5.40;3.58;;;19.90;61.80;;;;;;20882963;28;79823;-72
2021/09/18 03:35:44;;;;;;;4.70;3.08;;;19.80;62.10;;;;;;20882042;28;80377;-74
2021/09/18 03:46:06;;;;;;;4.70;3.20;;;19.50;64.00;;;;;;20875389;28;80485;-74
2021/09/18 03:56:11;;;;;;;4.53;3.05;;;19.40;64.90;;;;;;20894870;28;80860;-75
2021/09/18 04:06:21;;;;;;;5.32;3.22;;;19.30;65.60;;;;;;20894345;28;81096;-74
2021/09/18 04:16:33;;;;;;;10.13;3.87;;;19.20;66.90;;;;;;20893573;28;80144;-73
2021/09/18 04:26:40;;;;;;;6.75;3.75;;;19.10;67.40;;;;;;20875995;28;80507;-73
2021/09/18 04:36:46;;;;;;;8.75;3.85;;;19.00;67.20;;;;;;20875243;28;80736;-73
2021/09/18 04:46:54;;;;;;;7.55;4.05;;;18.90;68.00;;;;;;20875780;28;80829;-71
2021/09/18 04:57:01;;;;;;;6.07;3.35;;;18.80;69.00;;;;;;20891163;28;81616;-73
2021/09/18 05:07:07;;;;;;;6.18;3.00;;;18.70;68.90;;;;;;20891226;28;81081;-73
2021/09/18 05:17:11;;;;;;;6.07;3.50;;;18.60;69.30;;;;;;20890235;28;81064;-75
2021/09/18 05:27:14;;;;;;;5.15;2.65;;;18.50;69.70;;;;;;20889325;28;80022;-73
2021/09/18 05:37:21;;;;;;;6.15;3.33;;;18.20;71.10;;;;;;20872563;28;79847;-73
2021/09/18 05:47:25;;;;;;;6.18;3.22;;;18.10;71.70;;;;;;20871370;28;81065;-74
2021/09/18 05:57:29;;;;;;;6.18;3.40;;;18.00;71.80;;;;;;20869724;28;81309;-74
2021/09/18 06:07:31;;;;;;;;;;;17.90;72.10;;;;;;20869582;28;80502;-72
2021/09/18 06:17:35;;;;;;;6.13;3.67;;;18.00;71.90;;;;;;20891004;28;81815;-72
2021/09/18 06:27:40;;;;;;;5.13;3.33;;;17.90;71.40;;;;;;20867731;28;81329;-74
2021/09/18 06:37:47;;;;;;;6.05;3.60;;;17.90;71.20;;;;;;20885860;28;81773;-77
2021/09/18 06:47:49;;;;;;;8.10;3.28;;;18.10;71.00;;;;;;20868055;28;82254;-73
2021/09/18 06:57:54;;;;;;;12.70;3.38;;;18.20;70.80;;;;;;20885486;28;80360;-71
2021/09/18 07:07:56;;;;;;;6.07;3.70;;;18.50;70.10;;;;;;20867724;28;80672;-69
2021/09/18 07:17:58;;;;;;;8.93;4.47;;;18.70;69.80;;;;;;20889613;28;81996;-67
2021/09/18 07:28:02;;;;;;;5.75;3.75;;;18.90;69.30;;;;;;20881549;28;80625;-67
2021/09/18 07:38:05;;;;;;;8.00;3.78;;;19.10;68.50;;;;;;20897867;28;80811;-65
2021/09/18 07:48:08;;;;;;;6.95;4.65;;;19.40;67.60;;;;;;20897970;28;79947;-64
2021/09/18 07:58:11;;;;;;;9.30;5.70;;;19.80;66.00;;;;;;20879629;28;81857;-65
2021/09/18 08:08:13;;;;;;;13.88;5.85;;;20.20;64.90;;;;;;20878624;28;80809;-61
2021/09/18 08:18:16;;;;;;;10.88;5.57;;;20.60;63.50;;;;;;20880889;28;81660;-61
2021/09/18 08:28:18;;;;;;;9.13;5.63;;;20.80;62.80;;;;;;20893693;27;80156;-63
2021/09/18 08:38:23;;;;;;;;;;;21.20;62.10;;;;;;20895572;28;80755;-63
2021/09/18 08:48:25;;;;;;;10.07;4.55;;;21.50;60.50;;;;;;20898229;28;80975;-64
2021/09/18 08:58:27;;;;;;;9.23;4.00;;;21.80;60.10;;;;;;20892925;28;80121;-64
2021/09/18 09:08:29;;;;;;;;;;;22.30;58.30;;;;;;20893433;28;80774;-68
2021/09/18 09:18:40;;;;;;;5.13;3.22;;;22.90;62.70;;;;;;20914899;28;80548;-64
2021/09/18 09:28:43;;;;;;;6.65;2.20;;;23.40;59.30;;;;;;20874309;28;79883;-64
2021/09/18 09:39:07;;;;;;;4.60;2.25;;;24.60;51.90;;;;;;20891170;28;81710;-65
2021/09/18 09:49:15;;;;;;;4.65;2.22;;;25.60;48.30;;;;;;20890468;28;81609;-65
2021/09/18 09:59:28;;;;;;;5.35;2.35;;;26.80;45.60;;;;;;20890197;28;81805;-66
2021/09/18 10:09:30;;;;;;;4.00;1.83;;;28.70;40.90;;;;;;20870974;28;80356;-63
2021/09/18 10:29:44;;;;;;;4.70;2.25;;;30.50;36.10;;;;;;20889930;28;81846;-64
2021/09/18 10:40:12;;;;;;;3.25;1.83;;;32.00;33.70;;;;;;20886721;28;81779;-62
2021/09/18 10:50:36;;;;;;;16.63;2.80;;;34.10;29.90;;;;;;20887172;28;81900;-65
2021/09/18 11:00:40;;;;;;;3.40;2.20;;;36.50;27.20;;;;;;20901321;28;81831;-67
2021/09/18 11:10:45;;;;;;;3.00;2.08;;;38.00;25.20;;;;;;20880980;28;81484;-64
2021/09/18 11:20:51;;;;;;;3.97;1.80;;;40.70;22.40;;;;;;20899197;28;80018;-64
2021/09/18 11:30:56;;;;;;;3.97;1.98;;;40.60;22.00;;;;;;20898945;28;81029;-63
2021/09/18 11:41:08;;;;;;;2.70;2.05;;;41.20;21.70;;;;;;20881385;28;81830;-64
2021/09/18 11:51:11;;;;;;;3.60;2.13;;;43.70;19.60;;;;;;20898558;28;80861;-64
2021/09/18 12:01:13;;;;;;;15.40;2.25;;;44.70;18.40;;;;;;20898043;27;81872;-65
2021/09/18 12:11:18;;;;;;;4.97;2.33;;;38.30;23.30;;;;;;20897549;28;81306;-65
2021/09/18 12:21:26;;;;;;;3.08;2.03;;;38.60;23.00;;;;;;20897158;28;80758;-64
2021/09/18 12:31:29;;;;;;;3.00;2.17;;;36.20;24.70;;;;;;20878856;28;81632;-65
2021/09/18 12:41:34;;;;;;;4.20;1.88;;;35.50;25.50;;;;;;20894896;28;81856;-64
2021/09/18 12:51:39;;;;;;;5.93;2.97;;;32.50;28.90;;;;;;20894045;28;80788;-65
2021/09/18 13:01:53;;;;;;;3.00;2.25;;;33.80;27.60;;;;;;20893524;28;81843;-66
2021/09/18 13:12:06;;;;;;;3.75;3.08;;;36.40;24.20;;;;;;20893631;28;82438;-65
2021/09/18 13:22:09;;;;;;;3.80;2.00;;;34.00;26.80;;;;;;20873841;28;80805;-65
2021/09/18 13:32:11;;;;;;;3.47;1.95;;;33.90;25.60;;;;;;20891747;28;80853;-64
2021/09/18 13:42:15;;;;;;;2.38;1.83;;;33.40;26.00;;;;;;20892075;28;81923;-60
2021/09/18 13:52:17;;;;;;;3.92;2.38;;;37.30;22.70;;;;;;20889489;28;81847;-58
2021/09/18 14:02:19;;;;;;;3.97;1.90;;;39.70;19.50;;;;;;20875297;28;81964;-69
2021/09/18 14:12:22;;;;;;;1.65;1.48;;;38.10;20.50;;;;;;20858529;28;81106;-67
2021/09/18 14:22:24;;;;;;;4.05;2.20;;;41.90;16.70;;;;;;20859104;28;80821;-68
2021/09/18 14:32:26;;;;;;;3.33;3.03;;;45.90;15.60;;;;;;20873753;27;80993;-70
2021/09/18 14:42:29;;;;;;;3.10;2.20;;;48.70;15.30;;;;;;20858460;28;81318;-69
2021/09/18 14:52:31;;;;;;;2.40;2.20;;;44.30;17.30;;;;;;20874362;28;80759;-68
2021/09/18 15:02:33;;;;;;;2.20;1.70;;;44.30;17.50;;;;;;20855327;28;80760;-69
2021/09/18 15:12:35;;;;;;;4.07;2.00;;;48.10;15.20;;;;;;20871821;28;81771;-68
2021/09/18 15:22:37;;;;;;;2.03;1.80;;;44.70;16.80;;;;;;20872400;28;81423;-68
2021/09/18 15:32:40;;;;;;;3.00;1.88;;;42.70;17.70;;;;;;20855338;28;81402;-68
2021/09/18 15:42:42;;;;;;;4.85;2.58;;;47.70;14.90;;;;;;20881623;27;81709;-68
2021/09/18 15:52:44;;;;;;;2.22;1.75;;;48.40;14.40;;;;;;20868533;28;80836;-69
2021/09/18 16:02:47;;;;;;;5.85;4.95;;;48.40;14.10;;;;;;20885844;28;81181;-69
2021/09/18 16:12:49;;;;;;;3.55;1.95;;;47.90;14.30;;;;;;20885416;28;80102;-70
2021/09/18 16:22:50;;;;;;;2.58;0.82;;;42.60;16.40;;;;;;20893356;28;80622;-70
2021/09/18 16:32:52;;;;;;;3.80;1.52;;;37.20;19.10;;;;;;20895923;28;80717;-69
2021/09/18 16:42:54;;;;;;;2.42;1.20;;;33.70;21.60;;;;;;20877178;28;80492;-70
2021/09/18 16:52:56;;;;;;;2.20;1.35;;;32.10;23.10;;;;;;20893616;28;82118;-69
2021/09/18 17:02:58;;;;;;;2.47;1.05;;;30.90;24.10;;;;;;20894639;28;80784;-71
2021/09/18 17:13:00;;;;;;;4.50;0.90;;;29.80;24.90;;;;;;20894045;28;82154;-69
2021/09/18 17:23:02;;;;;;;3.38;1.00;;;29.10;25.40;;;;;;20873032;28;80975;-71
2021/09/18 17:33:04;;;;;;;2.25;1.10;;;28.30;26.00;;;;;;20871543;28;81146;-71
2021/09/18 17:43:06;;;;;;;4.57;2.05;;;27.70;26.30;;;;;;20887733;28;80877;-71
2021/09/18 17:53:09;;;;;;;1.95;0.68;;;27.10;29.20;;;;;;20869696;28;80889;-71
2021/09/18 18:03:10;;;;;;;1.33;0.70;;;26.60;28.20;;;;;;20869901;27;80235;-72
2021/09/18 18:13:12;;;;;;;1.75;0.80;;;26.10;28.50;;;;;;20868162;28;79949;-71
2021/09/18 18:23:17;;;;;;;2.78;1.25;;;25.50;28.50;;;;;;20885377;28;79914;-70
2021/09/18 18:33:18;;;;;;;1.80;0.70;;;25.10;29.40;;;;;;20884655;28;79958;-70
2021/09/18 18:43:20;;;;;;;2.15;0.93;;;24.90;29.50;;;;;;20884199;28;81046;-70
2021/09/18 18:53:22;;;;;;;2.10;1.17;;;24.60;29.40;;;;;;20884047;28;81853;-73
2021/09/18 19:03:24;;;;;;;2.13;0.95;;;24.30;29.30;;;;;;20866769;28;82208;-69
2021/09/18 19:13:25;;;;;;;5.57;0.90;;;24.00;29.20;;;;;;20887623;28;81773;-71
2021/09/18 19:23:27;;;;;;;4.82;1.33;;;23.90;29.10;;;;;;20879560;28;80016;-70
2021/09/18 19:33:29;;;;;;;1.88;0.50;;;23.60;29.00;;;;;;20879987;28;80791;-71
2021/09/18 19:43:33;;;;;;;2.00;0.75;;;23.30;28.80;;;;;;20896385;28;80680;-70
2021/09/18 19:53:37;;;;;;;3.70;0.70;;;23.10;29.60;;;;;;20896103;27;80588;-72
2021/09/18 20:03:40;;;;;;;3.83;1.05;;;22.90;29.50;;;;;;20878426;28;81072;-71
2021/09/18 20:13:44;;;;;;;3.58;1.00;;;22.70;29.10;;;;;;20895146;28;80030;-71
2021/09/18 20:23:45;;;;;;;4.60;1.23;;;22.60;28.90;;;;;;20859842;27;81867;-75
2021/09/18 20:33:47;;;;;;;3.67;0.68;;;22.40;29.00;;;;;;20875629;28;81813;-73
2021/09/18 20:43:50;;;;;;;4.82;2.00;;;22.20;29.30;;;;;;20875173;28;80914;-72
2021/09/18 20:53:52;;;;;;;1.30;0.50;;;22.00;29.50;;;;;;20893174;28;80576;-72
2021/09/18 21:14:15;;;;;;;5.18;1.42;;;21.70;30.60;;;;;;20913393;28;80829;-72
2021/09/18 21:24:18;;;;;;;1.60;0.70;;;21.50;30.70;;;;;;20891031;28;79903;-70
2021/09/18 21:34:20;;;;;;;3.15;1.20;;;21.30;31.00;;;;;;20889629;27;81085;-72
2021/09/18 21:44:21;;;;;;;2.55;1.20;;;21.20;32.30;;;;;;20886670;28;80824;-71
2021/09/18 21:54:24;;;;;;;4.15;1.00;;;20.90;32.70;;;;;;20885943;28;80876;-72
2021/09/18 22:04:26;;;;;;;2.78;0.77;;;20.80;34.00;;;;;;20881794;28;80765;-72
2021/09/18 22:14:28;;;;;;;1.48;0.70;;;20.70;33.60;;;;;;20880506;28;81659;-72
2021/09/18 22:24:29;;;;;;;2.27;0.37;;;20.60;33.60;;;;;;20881016;28;81844;-73
2021/09/18 22:34:32;;;;;;;1.30;0.30;;;20.40;34.00;;;;;;20880226;28;81930;-75
2021/09/18 22:44:34;;;;;;;;;;;20.30;34.20;;;;;;20863172;28;82100;-77
2021/09/18 22:54:36;;;;;;;3.42;0.70;;;20.00;34.40;;;;;;20836618;28;1372028;-74
2021/09/18 23:04:39;;;;;;;2.25;0.50;;;19.90;35.20;;;;;;20886462;28;80013;-74
2021/09/18 23:14:41;;;;;;;3.53;0.70;;;19.90;35.10;;;;;;20885190;28;80679;-72
2021/09/18 23:24:47;;;;;;;0.95;0.30;;;19.70;35.70;;;;;;20883897;28;80582;-75
2021/09/18 23:34:51;;;;;;;2.47;0.30;;;19.50;35.50;;;;;;20884194;28;81567;-76
2021/09/18 23:44:53;;;;;;;1.98;0.35;;;19.50;35.20;;;;;;20865598;28;79939;-76
2021/09/18 23:54:56;;;;;;;2.47;0.20;;;19.50;35.30;;;;;;20864027;28;80860;-74
